Tombarra — MPRD6 — position and weather

sailwx.info

Track history (hours):
 
Tides and Currents Weather Stations Pressure Air Temp Water Temp Dewpoint Dewpoint Depression Visibility Wind Speed Wind Dir Waves Ship Positions

Tombarra

Last reported at 2015-Mar-27 14:33 UTC. Time now 2015-Mar-28 11:08 UTC.
Position S 26°29' E 153°27'.

Length 199 m; draft 8.3 m.

Type: Ship. MMSI: 232971000.

Date/timePositionNaut miles runAvg speedWind from/ knotsBaromVisibWave heightAir tempDewpointWater temp
2015-Mar-27 14:33S 26°29' E 153°27'1414.0
2015-Mar-27 13:33S 26°40' E 153°16'1212.4
2015-Mar-27 12:33S 26°50' E 153°09'1818.1
2015-Mar-27 11:34S 27°06' E 153°19'1414.4
2015-Mar-27 10:33S 27°19' E 153°12'4 4.3
2015-Mar-27 09:33S 27°23' E 153°10'0 0.0
2015-Mar-27 08:33S 27°23' E 153°10'0 0.0
2015-Mar-27 07:33S 27°23' E 153°10'0 0.0
2015-Mar-27 06:33S 27°23' E 153°10'0 0.0
2015-Mar-27 05:33S 27°23' E 153°10'0 0.0
2015-Mar-27 04:33S 27°23' E 153°10'0 0.0
2015-Mar-27 03:33S 27°23' E 153°10'0 0.0
2015-Mar-27 02:33S 27°23' E 153°10'5 5.3
2015-Mar-27 01:34S 27°18' E 153°13'1413.5
2015-Mar-27 00:33S 27°06' E 153°19'1817.7
2015-Mar-26 23:34S 26°51' E 153°09'8 7.7
2015-Mar-26 22:34S 26°43' E 153°13'8 8.0
2015-Mar-26 21:33S 26°48' E 153°20'8 8.4
2015-Mar-26 20:34S 26°52' E 153°28'1212.3
2015-Mar-26 19:33S 26°58' E 153°40'1312.9
2015-Mar-26 18:33S 27°09' E 153°46'1313.3
2015-Mar-26 17:33S 27°23' E 153°48'1313.2
2015-Mar-26 16:34S 27°36' E 153°50'1312.9
2015-Mar-26 15:33S 27°49' E 153°52'1312.8
2015-Mar-26 14:33S 28°01' E 153°54'1512.5
2015-Mar-26 13:20S 28°17' E 153°54'24514.4
2015-Mar-25 20:21S 32°17' E 152°60'1415.3
2015-Mar-25 19:25S 32°31' E 152°56'1315.2
2015-Mar-25 18:33S 32°42' E 152°48'1615.9
2015-Mar-25 17:33S 32°55' E 152°36'1615.5
2015-Mar-25 16:32S 33°07' E 152°25'1614.9
2015-Mar-25 15:26S 33°20' E 152°13'254 8.8
2015-Mar-24 10:34S 37°16' E 150°16'1616.3
2015-Mar-24 09:33S 37°31' E 150°09'1616.1
2015-Mar-24 08:33S 37°44' E 149°57'1615.4
2015-Mar-24 07:33S 37°55' E 149°43'3815.4
2015-Mar-24 05:06S 38°18' E 149°05'915.4
2015-Mar-24 04:32S 38°24' E 148°56'11715.8
2015-Mar-23 21:07S 39°14' E 146°41'1017.1
2015-Mar-23 20:33S 39°17' E 146°29'1717.1
2015-Mar-23 19:33S 39°16' E 146°07'1716.8
2015-Mar-23 18:33S 39°06' E 145°50'1616.4
2015-Mar-23 17:33S 38°56' E 145°32'97 3.2
2015-Mar-22 11:09S 38°60' E 143°28'6 3.5
2015-Mar-22 09:19S 38°58' E 143°36'  
2015-Mar-18 06:33S 32°13' E 115°10'31 7.4
2015-Mar-18 02:19S 32°02' E 115°45'0 0.0
2015-Mar-18 01:34S 32°02' E 115°45'0 0.0
2015-Mar-18 00:34S 32°02' E 115°45'0 0.0
2015-Mar-17 23:31S 32°02' E 115°45'0 0.0
2015-Mar-17 22:31S 32°02' E 115°45'0 0.0
2015-Mar-17 21:34S 32°02' E 115°45'0 0.0
2015-Mar-17 20:34S 32°02' E 115°45'0 0.0
2015-Mar-17 19:34S 32°02' E 115°45'0 0.0
2015-Mar-17 18:31S 32°02' E 115°45'0 0.0
2015-Mar-17 17:31S 32°02' E 115°45'0 0.0
2015-Mar-17 16:34S 32°02' E 115°45'0 0.0
2015-Mar-17 15:31S 32°02' E 115°45'0 0.0
2015-Mar-17 14:34S 32°02' E 115°45'  
Track history (hours):
 
Tides and Currents Weather Stations Pressure Air Temp Water Temp Dewpoint Dewpoint Depression Visibility Wind Speed Wind Dir Waves Ship Positions

Tombarra

Last reported at 2015-Mar-27 14:33 UTC. Time now 2015-Mar-28 11:08 UTC.
Position S 26°29' E 153°27'.

Length 199 m; draft 8.3 m.

Type: Ship. MMSI: 232971000.

Date/timePositionNaut miles runAvg speedWind from/ knotsBaromVisibWave heightAir tempDewpointWater temp
2015-Mar-27 14:33S 26°29' E 153°27'1414.0
2015-Mar-27 13:33S 26°40' E 153°16'1212.4
2015-Mar-27 12:33S 26°50' E 153°09'1818.1
2015-Mar-27 11:34S 27°06' E 153°19'1414.4
2015-Mar-27 10:33S 27°19' E 153°12'4 4.3
2015-Mar-27 09:33S 27°23' E 153°10'0 0.0
2015-Mar-27 08:33S 27°23' E 153°10'0 0.0
2015-Mar-27 07:33S 27°23' E 153°10'0 0.0
2015-Mar-27 06:33S 27°23' E 153°10'0 0.0
2015-Mar-27 05:33S 27°23' E 153°10'0 0.0
2015-Mar-27 04:33S 27°23' E 153°10'0 0.0
2015-Mar-27 03:33S 27°23' E 153°10'0 0.0
2015-Mar-27 02:33S 27°23' E 153°10'5 5.3
2015-Mar-27 01:34S 27°18' E 153°13'1413.5
2015-Mar-27 00:33S 27°06' E 153°19'1817.7
2015-Mar-26 23:34S 26°51' E 153°09'8 7.7
2015-Mar-26 22:34S 26°43' E 153°13'8 8.0
2015-Mar-26 21:33S 26°48' E 153°20'8 8.4
2015-Mar-26 20:34S 26°52' E 153°28'1212.3
2015-Mar-26 19:33S 26°58' E 153°40'1312.9
2015-Mar-26 18:33S 27°09' E 153°46'1313.3
2015-Mar-26 17:33S 27°23' E 153°48'1313.2
2015-Mar-26 16:34S 27°36' E 153°50'1312.9
2015-Mar-26 15:33S 27°49' E 153°52'1312.8
2015-Mar-26 14:33S 28°01' E 153°54'1512.5
2015-Mar-26 13:20S 28°17' E 153°54'24514.4
2015-Mar-25 20:21S 32°17' E 152°60'1415.3
2015-Mar-25 19:25S 32°31' E 152°56'1315.2
2015-Mar-25 18:33S 32°42' E 152°48'1615.9
2015-Mar-25 17:33S 32°55' E 152°36'1615.5
2015-Mar-25 16:32S 33°07' E 152°25'1614.9
2015-Mar-25 15:26S 33°20' E 152°13'254 8.8
2015-Mar-24 10:34S 37°16' E 150°16'1616.3
2015-Mar-24 09:33S 37°31' E 150°09'1616.1
2015-Mar-24 08:33S 37°44' E 149°57'1615.4
2015-Mar-24 07:33S 37°55' E 149°43'3815.4
2015-Mar-24 05:06S 38°18' E 149°05'915.4
2015-Mar-24 04:32S 38°24' E 148°56'11715.8
2015-Mar-23 21:07S 39°14' E 146°41'1017.1
2015-Mar-23 20:33S 39°17' E 146°29'1717.1
2015-Mar-23 19:33S 39°16' E 146°07'1716.8
2015-Mar-23 18:33S 39°06' E 145°50'1616.4
2015-Mar-23 17:33S 38°56' E 145°32'97 3.2
2015-Mar-22 11:09S 38°60' E 143°28'6 3.5
2015-Mar-22 09:19S 38°58' E 143°36'  
2015-Mar-18 06:33S 32°13' E 115°10'31 7.4
2015-Mar-18 02:19S 32°02' E 115°45'0 0.0
2015-Mar-18 01:34S 32°02' E 115°45'0 0.0
2015-Mar-18 00:34S 32°02' E 115°45'0 0.0
2015-Mar-17 23:31S 32°02' E 115°45'0 0.0
2015-Mar-17 22:31S 32°02' E 115°45'0 0.0
2015-Mar-17 21:34S 32°02' E 115°45'0 0.0
2015-Mar-17 20:34S 32°02' E 115°45'0 0.0
2015-Mar-17 19:34S 32°02' E 115°45'0 0.0
2015-Mar-17 18:31S 32°02' E 115°45'0 0.0
2015-Mar-17 17:31S 32°02' E 115°45'0 0.0
2015-Mar-17 16:34S 32°02' E 115°45'0 0.0
2015-Mar-17 15:31S 32°02' E 115°45'0 0.0
2015-Mar-17 14:34S 32°02' E 115°45'  

Dump ship's entire track history